Terminal Aerodrome Forecast
Issued by NWS

Home | Current Version | Previous Version | Text Only | Print | Product List | Glossary Off
Versions: 1 2 3 4 5 6 7 8 9 10 11 12 13 14 15 16 17

000
FTUS43 KGRB 250900 AAA
TAFCWA
TAF AMD
KCWA 250951Z 2510/2606 14007KT 6SM BR SCT015 OVC040
      TEMPO 2510/2511 2SM TSRA OVC015CB
     FM251400 20005KT P6SM BKN015
     FM251800 22009G17KT P6SM SCT035 BKN080
      AMD LTD TO CLD VIS AND WIND TIL 251200=

USA.gov is the U.S. government's official web portal to all federal, state and local government web resources and services.